sensor_id;sensor_type;location;lat;lon;timestamp;P1;durP1;ratioP1;P2;durP2;ratioP2
10872;SDS011;34586;53.616;10.032;2023-12-20T00:00:55;14.07;;;2.33;;
10872;SDS011;34586;53.616;10.032;2023-12-20T00:03:21;12.17;;;2.13;;
10872;SDS011;34586;53.616;10.032;2023-12-20T00:05:47;15.23;;;2.10;;
10872;SDS011;34586;53.616;10.032;2023-12-20T00:08:13;20.23;;;3.00;;
10872;SDS011;34586;53.616;10.032;2023-12-20T00:10:38;12.93;;;2.40;;
10872;SDS011;34586;53.616;10.032;2023-12-20T00:13:04;16.57;;;1.90;;
10872;SDS011;34586;53.616;10.032;2023-12-20T00:15:30;14.40;;;2.40;;
10872;SDS011;34586;53.616;10.032;2023-12-20T00:17:55;11.90;;;1.67;;
10872;SDS011;34586;53.616;10.032;2023-12-20T00:20:21;11.77;;;1.83;;
10872;SDS011;34586;53.616;10.032;2023-12-20T00:22:46;16.97;;;2.10;;
10872;SDS011;34586;53.616;10.032;2023-12-20T00:25:12;14.80;;;1.93;;
10872;SDS011;34586;53.616;10.032;2023-12-20T00:27:37;15.43;;;2.07;;
10872;SDS011;34586;53.616;10.032;2023-12-20T00:30:03;15.23;;;2.07;;
10872;SDS011;34586;53.616;10.032;2023-12-20T00:32:29;14.30;;;2.60;;
10872;SDS011;34586;53.616;10.032;2023-12-20T00:34:55;12.73;;;1.70;;
10872;SDS011;34586;53.616;10.032;2023-12-20T00:37:20;16.17;;;2.57;;
10872;SDS011;34586;53.616;10.032;2023-12-20T00:39:46;12.13;;;2.30;;
10872;SDS011;34586;53.616;10.032;2023-12-20T00:42:11;12.20;;;2.20;;
10872;SDS011;34586;53.616;10.032;2023-12-20T00:44:37;11.63;;;2.30;;
10872;SDS011;34586;53.616;10.032;2023-12-20T00:47:03;15.60;;;2.30;;
10872;SDS011;34586;53.616;10.032;2023-12-20T00:49:28;17.10;;;2.37;;
10872;SDS011;34586;53.616;10.032;2023-12-20T00:51:54;9.80;;;1.90;;
10872;SDS011;34586;53.616;10.032;2023-12-20T00:54:19;19.23;;;2.30;;
10872;SDS011;34586;53.616;10.032;2023-12-20T00:56:45;12.87;;;2.53;;
10872;SDS011;34586;53.616;10.032;2023-12-20T00:59:11;15.50;;;2.00;;
10872;SDS011;34586;53.616;10.032;2023-12-20T01:01:36;12.43;;;1.97;;
10872;SDS011;34586;53.616;10.032;2023-12-20T01:04:02;17.33;;;2.20;;
10872;SDS011;34586;53.616;10.032;2023-12-20T01:06:28;14.53;;;2.00;;
10872;SDS011;34586;53.616;10.032;2023-12-20T01:08:53;13.37;;;2.00;;
10872;SDS011;34586;53.616;10.032;2023-12-20T01:11:19;13.37;;;1.77;;
10872;SDS011;34586;53.616;10.032;2023-12-20T01:13:45;14.17;;;2.13;;
10872;SDS011;34586;53.616;10.032;2023-12-20T01:16:10;12.33;;;2.53;;
10872;SDS011;34586;53.616;10.032;2023-12-20T01:18:37;12.87;;;2.10;;
10872;SDS011;34586;53.616;10.032;2023-12-20T01:21:03;11.97;;;2.13;;
10872;SDS011;34586;53.616;10.032;2023-12-20T01:23:29;13.77;;;2.17;;
10872;SDS011;34586;53.616;10.032;2023-12-20T01:25:55;15.83;;;2.30;;
10872;SDS011;34586;53.616;10.032;2023-12-20T01:28:21;10.47;;;1.90;;
10872;SDS011;34586;53.616;10.032;2023-12-20T01:30:47;11.47;;;1.90;;
10872;SDS011;34586;53.616;10.032;2023-12-20T01:33:13;10.57;;;1.90;;
10872;SDS011;34586;53.616;10.032;2023-12-20T01:35:38;9.13;;;2.10;;
10872;SDS011;34586;53.616;10.032;2023-12-20T01:38:04;15.67;;;2.40;;
10872;SDS011;34586;53.616;10.032;2023-12-20T01:40:29;13.63;;;1.77;;
10872;SDS011;34586;53.616;10.032;2023-12-20T01:43:02;12.07;;;1.97;;
10872;SDS011;34586;53.616;10.032;2023-12-20T01:45:32;15.57;;;2.30;;
10872;SDS011;34586;53.616;10.032;2023-12-20T01:47:58;11.60;;;1.80;;
10872;SDS011;34586;53.616;10.032;2023-12-20T01:50:24;9.17;;;1.70;;
10872;SDS011;34586;53.616;10.032;2023-12-20T01:52:51;13.00;;;2.50;;
10872;SDS011;34586;53.616;10.032;2023-12-20T01:55:20;11.03;;;2.27;;
10872;SDS011;34586;53.616;10.032;2023-12-20T01:57:46;15.67;;;2.40;;
10872;SDS011;34586;53.616;10.032;2023-12-20T02:00:12;18.87;;;3.10;;
10872;SDS011;34586;53.616;10.032;2023-12-20T02:02:39;12.70;;;1.77;;
10872;SDS011;34586;53.616;10.032;2023-12-20T02:05:06;15.57;;;2.10;;
10872;SDS011;34586;53.616;10.032;2023-12-20T02:07:32;13.50;;;2.03;;
10872;SDS011;34586;53.616;10.032;2023-12-20T02:10:01;14.30;;;2.63;;
10872;SDS011;34586;53.616;10.032;2023-12-20T02:12:27;10.50;;;2.20;;
10872;SDS011;34586;53.616;10.032;2023-12-20T02:14:52;18.47;;;2.10;;
10872;SDS011;34586;53.616;10.032;2023-12-20T02:17:19;13.37;;;2.00;;
10872;SDS011;34586;53.616;10.032;2023-12-20T02:19:45;17.73;;;2.30;;
10872;SDS011;34586;53.616;10.032;2023-12-20T02:22:11;10.63;;;2.00;;
10872;SDS011;34586;53.616;10.032;2023-12-20T02:24:37;17.87;;;2.23;;
10872;SDS011;34586;53.616;10.032;2023-12-20T02:27:03;16.20;;;2.00;;
10872;SDS011;34586;53.616;10.032;2023-12-20T02:29:32;14.47;;;2.53;;
10872;SDS011;34586;53.616;10.032;2023-12-20T02:31:58;11.37;;;2.07;;
10872;SDS011;34586;53.616;10.032;2023-12-20T02:34:24;11.70;;;1.80;;
10872;SDS011;34586;53.616;10.032;2023-12-20T02:36:49;14.73;;;2.70;;
10872;SDS011;34586;53.616;10.032;2023-12-20T02:39:15;15.33;;;1.63;;
10872;SDS011;34586;53.616;10.032;2023-12-20T02:41:41;9.30;;;2.03;;
10872;SDS011;34586;53.616;10.032;2023-12-20T02:44:07;10.43;;;1.93;;
10872;SDS011;34586;53.616;10.032;2023-12-20T02:46:33;8.00;;;1.80;;
10872;SDS011;34586;53.616;10.032;2023-12-20T02:48:58;14.83;;;1.97;;
10872;SDS011;34586;53.616;10.032;2023-12-20T02:51:24;16.53;;;2.37;;
10872;SDS011;34586;53.616;10.032;2023-12-20T02:53:49;9.47;;;1.87;;
10872;SDS011;34586;53.616;10.032;2023-12-20T02:56:15;13.27;;;1.70;;
10872;SDS011;34586;53.616;10.032;2023-12-20T02:58:40;9.70;;;1.60;;
10872;SDS011;34586;53.616;10.032;2023-12-20T03:01:06;8.43;;;1.60;;
10872;SDS011;34586;53.616;10.032;2023-12-20T03:03:31;7.83;;;2.03;;
10872;SDS011;34586;53.616;10.032;2023-12-20T03:05:57;13.47;;;1.97;;
10872;SDS011;34586;53.616;10.032;2023-12-20T03:08:23;7.87;;;1.87;;
10872;SDS011;34586;53.616;10.032;2023-12-20T03:10:48;6.93;;;1.57;;
10872;SDS011;34586;53.616;10.032;2023-12-20T03:13:14;14.47;;;1.90;;
10872;SDS011;34586;53.616;10.032;2023-12-20T03:15:40;13.03;;;1.97;;
10872;SDS011;34586;53.616;10.032;2023-12-20T03:18:06;11.33;;;1.77;;
10872;SDS011;34586;53.616;10.032;2023-12-20T03:20:31;14.30;;;1.80;;
10872;SDS011;34586;53.616;10.032;2023-12-20T03:22:59;11.33;;;1.93;;
10872;SDS011;34586;53.616;10.032;2023-12-20T03:25:25;18.77;;;2.80;;
10872;SDS011;34586;53.616;10.032;2023-12-20T03:27:52;12.30;;;2.03;;
10872;SDS011;34586;53.616;10.032;2023-12-20T03:30:18;17.73;;;2.30;;
10872;SDS011;34586;53.616;10.032;2023-12-20T03:32:43;8.73;;;2.10;;
10872;SDS011;34586;53.616;10.032;2023-12-20T03:35:09;9.23;;;1.77;;
10872;SDS011;34586;53.616;10.032;2023-12-20T03:37:35;13.23;;;2.13;;
10872;SDS011;34586;53.616;10.032;2023-12-20T03:40:01;10.13;;;1.93;;
10872;SDS011;34586;53.616;10.032;2023-12-20T03:42:27;9.37;;;1.70;;
10872;SDS011;34586;53.616;10.032;2023-12-20T03:44:52;13.17;;;2.47;;
10872;SDS011;34586;53.616;10.032;2023-12-20T03:47:18;14.43;;;2.03;;
10872;SDS011;34586;53.616;10.032;2023-12-20T03:49:43;9.67;;;2.57;;
10872;SDS011;34586;53.616;10.032;2023-12-20T03:52:09;11.30;;;2.23;;
10872;SDS011;34586;53.616;10.032;2023-12-20T03:54:35;16.43;;;2.30;;
10872;SDS011;34586;53.616;10.032;2023-12-20T03:57:00;11.43;;;2.33;;
10872;SDS011;34586;53.616;10.032;2023-12-20T03:59:26;9.23;;;1.70;;
10872;SDS011;34586;53.616;10.032;2023-12-20T04:01:52;12.87;;;2.13;;
10872;SDS011;34586;53.616;10.032;2023-12-20T04:04:17;11.83;;;2.07;;
10872;SDS011;34586;53.616;10.032;2023-12-20T04:06:43;8.80;;;2.10;;
10872;SDS011;34586;53.616;10.032;2023-12-20T04:09:09;11.67;;;1.97;;
10872;SDS011;34586;53.616;10.032;2023-12-20T04:11:34;13.87;;;2.50;;
10872;SDS011;34586;53.616;10.032;2023-12-20T04:14:01;11.57;;;2.20;;
10872;SDS011;34586;53.616;10.032;2023-12-20T04:16:27;12.40;;;1.93;;
10872;SDS011;34586;53.616;10.032;2023-12-20T04:18:52;9.13;;;1.57;;
10872;SDS011;34586;53.616;10.032;2023-12-20T04:21:18;13.70;;;2.47;;
10872;SDS011;34586;53.616;10.032;2023-12-20T04:23:43;10.17;;;1.70;;
10872;SDS011;34586;53.616;10.032;2023-12-20T04:26:09;14.23;;;1.97;;
10872;SDS011;34586;53.616;10.032;2023-12-20T04:28:35;10.43;;;2.67;;
10872;SDS011;34586;53.616;10.032;2023-12-20T04:31:00;12.77;;;2.07;;
10872;SDS011;34586;53.616;10.032;2023-12-20T04:33:26;14.03;;;2.27;;
10872;SDS011;34586;53.616;10.032;2023-12-20T04:35:51;12.57;;;2.00;;
10872;SDS011;34586;53.616;10.032;2023-12-20T04:38:17;9.07;;;1.77;;
10872;SDS011;34586;53.616;10.032;2023-12-20T04:40:43;11.30;;;1.93;;
10872;SDS011;34586;53.616;10.032;2023-12-20T04:43:08;13.00;;;2.03;;
10872;SDS011;34586;53.616;10.032;2023-12-20T04:45:34;11.47;;;1.80;;
10872;SDS011;34586;53.616;10.032;2023-12-20T04:48:01;11.00;;;2.10;;
10872;SDS011;34586;53.616;10.032;2023-12-20T04:50:27;11.57;;;2.27;;
10872;SDS011;34586;53.616;10.032;2023-12-20T04:52:53;10.83;;;1.93;;
10872;SDS011;34586;53.616;10.032;2023-12-20T04:55:18;10.57;;;2.20;;
10872;SDS011;34586;53.616;10.032;2023-12-20T04:57:44;14.00;;;1.77;;
10872;SDS011;34586;53.616;10.032;2023-12-20T05:00:09;16.13;;;2.20;;
10872;SDS011;34586;53.616;10.032;2023-12-20T05:02:36;14.60;;;2.40;;
10872;SDS011;34586;53.616;10.032;2023-12-20T05:05:01;7.60;;;1.80;;
10872;SDS011;34586;53.616;10.032;2023-12-20T05:07:27;13.70;;;1.93;;
10872;SDS011;34586;53.616;10.032;2023-12-20T05:09:53;11.37;;;2.17;;
10872;SDS011;34586;53.616;10.032;2023-12-20T05:12:19;7.30;;;1.83;;
10872;SDS011;34586;53.616;10.032;2023-12-20T05:14:44;12.53;;;2.10;;
10872;SDS011;34586;53.616;10.032;2023-12-20T05:17:11;12.63;;;2.37;;
10872;SDS011;34586;53.616;10.032;2023-12-20T05:19:36;12.33;;;2.07;;
10872;SDS011;34586;53.616;10.032;2023-12-20T05:22:02;12.63;;;2.50;;
10872;SDS011;34586;53.616;10.032;2023-12-20T05:24:28;13.97;;;2.63;;
10872;SDS011;34586;53.616;10.032;2023-12-20T05:26:53;13.47;;;2.40;;
10872;SDS011;34586;53.616;10.032;2023-12-20T05:29:19;12.57;;;2.60;;
10872;SDS011;34586;53.616;10.032;2023-12-20T05:31:44;8.30;;;2.57;;
10872;SDS011;34586;53.616;10.032;2023-12-20T05:34:10;15.67;;;3.33;;
10872;SDS011;34586;53.616;10.032;2023-12-20T05:36:36;12.50;;;2.03;;
10872;SDS011;34586;53.616;10.032;2023-12-20T05:39:02;12.47;;;2.23;;
10872;SDS011;34586;53.616;10.032;2023-12-20T05:41:32;14.90;;;3.20;;
10872;SDS011;34586;53.616;10.032;2023-12-20T05:43:58;16.50;;;2.57;;
10872;SDS011;34586;53.616;10.032;2023-12-20T05:46:24;13.43;;;2.63;;
10872;SDS011;34586;53.616;10.032;2023-12-20T05:48:50;11.13;;;2.47;;
10872;SDS011;34586;53.616;10.032;2023-12-20T05:51:16;15.83;;;2.37;;
10872;SDS011;34586;53.616;10.032;2023-12-20T05:53:42;11.90;;;2.60;;
10872;SDS011;34586;53.616;10.032;2023-12-20T05:56:09;9.70;;;2.60;;
10872;SDS011;34586;53.616;10.032;2023-12-20T05:58:35;12.57;;;2.30;;
10872;SDS011;34586;53.616;10.032;2023-12-20T06:01:00;12.97;;;2.87;;
10872;SDS011;34586;53.616;10.032;2023-12-20T06:03:29;14.70;;;2.80;;
10872;SDS011;34586;53.616;10.032;2023-12-20T06:05:54;10.47;;;2.10;;
10872;SDS011;34586;53.616;10.032;2023-12-20T06:08:20;17.13;;;3.07;;
10872;SDS011;34586;53.616;10.032;2023-12-20T06:10:45;21.20;;;2.43;;
10872;SDS011;34586;53.616;10.032;2023-12-20T06:13:11;14.83;;;2.57;;
10872;SDS011;34586;53.616;10.032;2023-12-20T06:15:38;15.43;;;3.07;;
10872;SDS011;34586;53.616;10.032;2023-12-20T06:18:03;10.77;;;2.07;;
10872;SDS011;34586;53.616;10.032;2023-12-20T06:20:29;16.90;;;3.30;;
10872;SDS011;34586;53.616;10.032;2023-12-20T06:22:55;17.37;;;2.83;;
10872;SDS011;34586;53.616;10.032;2023-12-20T06:25:20;18.93;;;3.00;;
10872;SDS011;34586;53.616;10.032;2023-12-20T06:27:46;16.37;;;3.30;;
10872;SDS011;34586;53.616;10.032;2023-12-20T06:30:11;14.20;;;2.87;;
10872;SDS011;34586;53.616;10.032;2023-12-20T06:32:37;16.97;;;3.90;;
10872;SDS011;34586;53.616;10.032;2023-12-20T06:35:04;20.00;;;3.37;;
10872;SDS011;34586;53.616;10.032;2023-12-20T06:37:30;11.63;;;3.33;;
10872;SDS011;34586;53.616;10.032;2023-12-20T06:39:56;16.23;;;3.23;;
10872;SDS011;34586;53.616;10.032;2023-12-20T06:42:22;16.70;;;3.07;;
10872;SDS011;34586;53.616;10.032;2023-12-20T06:44:47;14.80;;;2.83;;
10872;SDS011;34586;53.616;10.032;2023-12-20T06:47:13;14.30;;;2.87;;
10872;SDS011;34586;53.616;10.032;2023-12-20T06:49:39;14.97;;;2.40;;
10872;SDS011;34586;53.616;10.032;2023-12-20T06:52:05;14.40;;;2.90;;
10872;SDS011;34586;53.616;10.032;2023-12-20T06:54:31;16.30;;;2.33;;
10872;SDS011;34586;53.616;10.032;2023-12-20T06:56:59;16.33;;;2.57;;
10872;SDS011;34586;53.616;10.032;2023-12-20T06:59:24;13.77;;;2.40;;
10872;SDS011;34586;53.616;10.032;2023-12-20T07:01:51;11.00;;;2.70;;
10872;SDS011;34586;53.616;10.032;2023-12-20T07:04:16;15.67;;;2.57;;
10872;SDS011;34586;53.616;10.032;2023-12-20T07:06:45;13.13;;;2.90;;
10872;SDS011;34586;53.616;10.032;2023-12-20T07:09:13;15.67;;;2.63;;
10872;SDS011;34586;53.616;10.032;2023-12-20T07:11:38;13.50;;;2.33;;
10872;SDS011;34586;53.616;10.032;2023-12-20T07:14:04;13.87;;;2.30;;
10872;SDS011;34586;53.616;10.032;2023-12-20T07:16:30;14.37;;;2.63;;
10872;SDS011;34586;53.616;10.032;2023-12-20T07:18:55;16.23;;;2.70;;
10872;SDS011;34586;53.616;10.032;2023-12-20T07:21:22;17.90;;;3.57;;
10872;SDS011;34586;53.616;10.032;2023-12-20T07:23:47;24.60;;;3.33;;
10872;SDS011;34586;53.616;10.032;2023-12-20T07:26:13;17.97;;;3.47;;
10872;SDS011;34586;53.616;10.032;2023-12-20T07:28:38;12.77;;;2.93;;
10872;SDS011;34586;53.616;10.032;2023-12-20T07:31:05;19.33;;;2.87;;
10872;SDS011;34586;53.616;10.032;2023-12-20T07:33:31;21.43;;;3.53;;
10872;SDS011;34586;53.616;10.032;2023-12-20T07:35:56;13.13;;;2.73;;
10872;SDS011;34586;53.616;10.032;2023-12-20T07:38:22;11.97;;;2.20;;
10872;SDS011;34586;53.616;10.032;2023-12-20T07:40:47;16.47;;;2.90;;
10872;SDS011;34586;53.616;10.032;2023-12-20T07:43:13;14.77;;;2.93;;
10872;SDS011;34586;53.616;10.032;2023-12-20T07:45:39;20.37;;;3.23;;
10872;SDS011;34586;53.616;10.032;2023-12-20T07:48:05;13.83;;;2.70;;
10872;SDS011;34586;53.616;10.032;2023-12-20T07:50:31;17.73;;;2.90;;
10872;SDS011;34586;53.616;10.032;2023-12-20T07:52:57;17.47;;;3.53;;
10872;SDS011;34586;53.616;10.032;2023-12-20T07:55:25;16.53;;;2.87;;
10872;SDS011;34586;53.616;10.032;2023-12-20T07:57:51;18.57;;;3.83;;
10872;SDS011;34586;53.616;10.032;2023-12-20T08:00:17;15.83;;;3.03;;
10872;SDS011;34586;53.616;10.032;2023-12-20T08:02:43;14.53;;;2.90;;
10872;SDS011;34586;53.616;10.032;2023-12-20T08:05:08;15.87;;;3.50;;
10872;SDS011;34586;53.616;10.032;2023-12-20T08:07:34;19.60;;;2.80;;
10872;SDS011;34586;53.616;10.032;2023-12-20T08:10:00;15.83;;;3.80;;
10872;SDS011;34586;53.616;10.032;2023-12-20T08:12:25;17.83;;;3.03;;
10872;SDS011;34586;53.616;10.032;2023-12-20T08:14:52;19.13;;;3.30;;
10872;SDS011;34586;53.616;10.032;2023-12-20T08:17:18;15.07;;;2.90;;
10872;SDS011;34586;53.616;10.032;2023-12-20T08:19:44;16.70;;;3.50;;
10872;SDS011;34586;53.616;10.032;2023-12-20T08:22:10;16.80;;;3.17;;
10872;SDS011;34586;53.616;10.032;2023-12-20T08:24:36;16.93;;;2.70;;
10872;SDS011;34586;53.616;10.032;2023-12-20T08:27:02;13.20;;;2.63;;
10872;SDS011;34586;53.616;10.032;2023-12-20T08:29:28;12.10;;;3.23;;
10872;SDS011;34586;53.616;10.032;2023-12-20T08:31:54;14.50;;;2.57;;
10872;SDS011;34586;53.616;10.032;2023-12-20T08:34:20;19.33;;;3.57;;
10872;SDS011;34586;53.616;10.032;2023-12-20T08:36:46;15.20;;;2.90;;
10872;SDS011;34586;53.616;10.032;2023-12-20T08:39:11;15.57;;;2.90;;
10872;SDS011;34586;53.616;10.032;2023-12-20T08:41:37;14.33;;;3.30;;
10872;SDS011;34586;53.616;10.032;2023-12-20T08:44:03;17.93;;;4.03;;
10872;SDS011;34586;53.616;10.032;2023-12-20T08:46:28;20.93;;;3.40;;
10872;SDS011;34586;53.616;10.032;2023-12-20T08:48:54;15.23;;;3.47;;
10872;SDS011;34586;53.616;10.032;2023-12-20T08:51:20;12.53;;;3.67;;
10872;SDS011;34586;53.616;10.032;2023-12-20T08:53:47;21.93;;;3.33;;
10872;SDS011;34586;53.616;10.032;2023-12-20T08:56:14;16.40;;;2.70;;
10872;SDS011;34586;53.616;10.032;2023-12-20T08:58:40;14.23;;;3.30;;
10872;SDS011;34586;53.616;10.032;2023-12-20T09:01:05;15.60;;;3.33;;
10872;SDS011;34586;53.616;10.032;2023-12-20T09:03:32;14.33;;;2.80;;
10872;SDS011;34586;53.616;10.032;2023-12-20T09:05:58;17.63;;;2.97;;
10872;SDS011;34586;53.616;10.032;2023-12-20T09:08:23;18.40;;;3.33;;
10872;SDS011;34586;53.616;10.032;2023-12-20T09:10:49;20.90;;;3.50;;
10872;SDS011;34586;53.616;10.032;2023-12-20T09:13:14;12.20;;;3.00;;
10872;SDS011;34586;53.616;10.032;2023-12-20T09:15:40;12.37;;;2.30;;
10872;SDS011;34586;53.616;10.032;2023-12-20T09:18:06;10.60;;;2.30;;
10872;SDS011;34586;53.616;10.032;2023-12-20T09:20:31;14.17;;;2.37;;
10872;SDS011;34586;53.616;10.032;2023-12-20T09:22:57;15.17;;;2.77;;
10872;SDS011;34586;53.616;10.032;2023-12-20T09:25:23;16.97;;;3.03;;
10872;SDS011;34586;53.616;10.032;2023-12-20T09:27:50;13.97;;;3.00;;
10872;SDS011;34586;53.616;10.032;2023-12-20T09:30:17;10.03;;;1.93;;
10872;SDS011;34586;53.616;10.032;2023-12-20T09:32:43;9.23;;;2.10;;
10872;SDS011;34586;53.616;10.032;2023-12-20T09:35:09;8.63;;;1.70;;
10872;SDS011;34586;53.616;10.032;2023-12-20T09:37:34;9.90;;;1.90;;
10872;SDS011;34586;53.616;10.032;2023-12-20T09:40:00;12.00;;;2.10;;
10872;SDS011;34586;53.616;10.032;2023-12-20T09:45:10;9.13;;;1.70;;
10872;SDS011;34586;53.616;10.032;2023-12-20T09:47:40;4.80;;;1.50;;
10872;SDS011;34586;53.616;10.032;2023-12-20T09:50:06;5.43;;;1.30;;
10872;SDS011;34586;53.616;10.032;2023-12-20T09:52:33;3.47;;;0.90;;
10872;SDS011;34586;53.616;10.032;2023-12-20T09:55:01;2.67;;;0.80;;
10872;SDS011;34586;53.616;10.032;2023-12-20T09:57:31;4.57;;;1.20;;
10872;SDS011;34586;53.616;10.032;2023-12-20T09:59:57;3.87;;;1.23;;
10872;SDS011;34586;53.616;10.032;2023-12-20T10:02:23;1.37;;;0.60;;
10872;SDS011;34586;53.616;10.032;2023-12-20T10:04:52;3.57;;;0.83;;
10872;SDS011;34586;53.616;10.032;2023-12-20T10:07:19;1.70;;;0.57;;
10872;SDS011;34586;53.616;10.032;2023-12-20T10:09:45;3.77;;;0.60;;
10872;SDS011;34586;53.616;10.032;2023-12-20T10:12:12;2.47;;;0.80;;
10872;SDS011;34586;53.616;10.032;2023-12-20T10:14:38;3.90;;;0.70;;
10872;SDS011;34586;53.616;10.032;2023-12-20T10:17:04;5.50;;;1.00;;
10872;SDS011;34586;53.616;10.032;2023-12-20T10:19:31;5.80;;;0.70;;
10872;SDS011;34586;53.616;10.032;2023-12-20T10:22:00;5.63;;;1.07;;
10872;SDS011;34586;53.616;10.032;2023-12-20T10:24:28;4.10;;;0.67;;
10872;SDS011;34586;53.616;10.032;2023-12-20T10:27:01;4.17;;;0.70;;
10872;SDS011;34586;53.616;10.032;2023-12-20T10:29:33;4.93;;;0.93;;
10872;SDS011;34586;53.616;10.032;2023-12-20T10:32:24;1.87;;;0.80;;
10872;SDS011;34586;53.616;10.032;2023-12-20T10:34:51;4.47;;;1.00;;
10872;SDS011;34586;53.616;10.032;2023-12-20T10:37:17;5.87;;;0.97;;
10872;SDS011;34586;53.616;10.032;2023-12-20T10:39:43;3.87;;;0.90;;
10872;SDS011;34586;53.616;10.032;2023-12-20T10:42:12;7.77;;;0.90;;
10872;SDS011;34586;53.616;10.032;2023-12-20T10:44:39;2.70;;;0.70;;
10872;SDS011;34586;53.616;10.032;2023-12-20T10:47:05;3.50;;;1.00;;
10872;SDS011;34586;53.616;10.032;2023-12-20T10:49:32;4.17;;;1.07;;
10872;SDS011;34586;53.616;10.032;2023-12-20T10:52:02;7.67;;;0.93;;
10872;SDS011;34586;53.616;10.032;2023-12-20T10:54:28;5.10;;;1.40;;
10872;SDS011;34586;53.616;10.032;2023-12-20T10:56:54;3.63;;;0.83;;
10872;SDS011;34586;53.616;10.032;2023-12-20T10:59:23;4.27;;;1.20;;
10872;SDS011;34586;53.616;10.032;2023-12-20T11:01:49;4.03;;;0.87;;
10872;SDS011;34586;53.616;10.032;2023-12-20T11:04:17;3.70;;;0.87;;
10872;SDS011;34586;53.616;10.032;2023-12-20T11:06:47;4.83;;;1.00;;
10872;SDS011;34586;53.616;10.032;2023-12-20T11:14:31;6.07;;;1.13;;
10872;SDS011;34586;53.616;10.032;2023-12-20T11:17:11;7.37;;;1.73;;
10872;SDS011;34586;53.616;10.032;2023-12-20T11:22:35;7.13;;;1.10;;
10872;SDS011;34586;53.616;10.032;2023-12-20T11:25:05;6.23;;;0.87;;
10872;SDS011;34586;53.616;10.032;2023-12-20T11:27:36;4.47;;;1.10;;
10872;SDS011;34586;53.616;10.032;2023-12-20T11:30:05;7.77;;;0.97;;
10872;SDS011;34586;53.616;10.032;2023-12-20T11:32:32;3.30;;;0.70;;
10872;SDS011;34586;53.616;10.032;2023-12-20T11:35:00;1.30;;;0.50;;
10872;SDS011;34586;53.616;10.032;2023-12-20T11:37:41;1.60;;;0.40;;
10872;SDS011;34586;53.616;10.032;2023-12-20T11:40:08;2.10;;;0.50;;
10872;SDS011;34586;53.616;10.032;2023-12-20T11:42:38;2.53;;;0.43;;
10872;SDS011;34586;53.616;10.032;2023-12-20T11:45:04;1.27;;;0.70;;
10872;SDS011;34586;53.616;10.032;2023-12-20T11:47:33;5.13;;;0.80;;
10872;SDS011;34586;53.616;10.032;2023-12-20T11:49:59;5.23;;;0.70;;
10872;SDS011;34586;53.616;10.032;2023-12-20T11:52:28;5.83;;;0.90;;
10872;SDS011;34586;53.616;10.032;2023-12-20T11:54:54;6.77;;;1.50;;
10872;SDS011;34586;53.616;10.032;2023-12-20T11:57:19;8.77;;;1.70;;
10872;SDS011;34586;53.616;10.032;2023-12-20T11:59:45;8.43;;;1.07;;
10872;SDS011;34586;53.616;10.032;2023-12-20T12:02:11;7.90;;;1.47;;
10872;SDS011;34586;53.616;10.032;2023-12-20T12:04:37;10.17;;;1.47;;
10872;SDS011;34586;53.616;10.032;2023-12-20T12:07:03;15.40;;;2.03;;
10872;SDS011;34586;53.616;10.032;2023-12-20T12:09:29;11.03;;;2.33;;
10872;SDS011;34586;53.616;10.032;2023-12-20T12:11:54;12.20;;;1.80;;
10872;SDS011;34586;53.616;10.032;2023-12-20T12:14:20;11.60;;;2.13;;
10872;SDS011;34586;53.616;10.032;2023-12-20T12:16:46;15.03;;;2.07;;
10872;SDS011;34586;53.616;10.032;2023-12-20T12:19:24;15.03;;;2.23;;
10872;SDS011;34586;53.616;10.032;2023-12-20T12:21:50;14.60;;;2.70;;
10872;SDS011;34586;53.616;10.032;2023-12-20T12:24:20;14.77;;;2.57;;
10872;SDS011;34586;53.616;10.032;2023-12-20T12:26:50;11.00;;;2.50;;
10872;SDS011;34586;53.616;10.032;2023-12-20T12:29:16;19.40;;;2.70;;
10872;SDS011;34586;53.616;10.032;2023-12-20T12:31:42;15.83;;;2.63;;
10872;SDS011;34586;53.616;10.032;2023-12-20T12:34:08;15.27;;;2.60;;
10872;SDS011;34586;53.616;10.032;2023-12-20T12:36:34;16.40;;;3.20;;
10872;SDS011;34586;53.616;10.032;2023-12-20T12:39:02;11.87;;;2.10;;
10872;SDS011;34586;53.616;10.032;2023-12-20T12:41:29;17.60;;;2.87;;
10872;SDS011;34586;53.616;10.032;2023-12-20T12:43:55;11.53;;;2.00;;
10872;SDS011;34586;53.616;10.032;2023-12-20T12:46:21;14.20;;;2.73;;
10872;SDS011;34586;53.616;10.032;2023-12-20T12:48:46;10.90;;;2.80;;
10872;SDS011;34586;53.616;10.032;2023-12-20T12:51:12;14.93;;;2.60;;
10872;SDS011;34586;53.616;10.032;2023-12-20T12:53:38;23.27;;;3.53;;
10872;SDS011;34586;53.616;10.032;2023-12-20T12:56:04;13.33;;;2.93;;
10872;SDS011;34586;53.616;10.032;2023-12-20T12:58:31;14.67;;;2.70;;
10872;SDS011;34586;53.616;10.032;2023-12-20T13:00:57;18.03;;;2.70;;
10872;SDS011;34586;53.616;10.032;2023-12-20T13:03:23;16.83;;;3.13;;
10872;SDS011;34586;53.616;10.032;2023-12-20T13:05:49;12.03;;;2.23;;
10872;SDS011;34586;53.616;10.032;2023-12-20T13:08:15;20.47;;;3.00;;
10872;SDS011;34586;53.616;10.032;2023-12-20T13:10:40;20.00;;;3.00;;
10872;SDS011;34586;53.616;10.032;2023-12-20T13:13:06;16.23;;;2.87;;
10872;SDS011;34586;53.616;10.032;2023-12-20T13:15:32;14.03;;;2.33;;
10872;SDS011;34586;53.616;10.032;2023-12-20T13:17:58;16.70;;;2.70;;
10872;SDS011;34586;53.616;10.032;2023-12-20T13:20:23;16.53;;;3.53;;
10872;SDS011;34586;53.616;10.032;2023-12-20T13:22:50;13.17;;;2.47;;
10872;SDS011;34586;53.616;10.032;2023-12-20T13:25:15;15.27;;;3.50;;
10872;SDS011;34586;53.616;10.032;2023-12-20T13:27:41;13.63;;;2.40;;
10872;SDS011;34586;53.616;10.032;2023-12-20T13:30:07;16.00;;;3.07;;
10872;SDS011;34586;53.616;10.032;2023-12-20T13:32:32;18.20;;;3.30;;
10872;SDS011;34586;53.616;10.032;2023-12-20T13:34:58;15.13;;;2.87;;
10872;SDS011;34586;53.616;10.032;2023-12-20T13:37:23;16.83;;;3.17;;
10872;SDS011;34586;53.616;10.032;2023-12-20T13:39:49;14.37;;;3.03;;
10872;SDS011;34586;53.616;10.032;2023-12-20T13:42:15;17.50;;;3.17;;
10872;SDS011;34586;53.616;10.032;2023-12-20T13:44:40;18.17;;;3.20;;
10872;SDS011;34586;53.616;10.032;2023-12-20T13:47:06;14.83;;;3.10;;
10872;SDS011;34586;53.616;10.032;2023-12-20T13:49:31;17.97;;;3.47;;
10872;SDS011;34586;53.616;10.032;2023-12-20T13:51:57;18.67;;;3.07;;
10872;SDS011;34586;53.616;10.032;2023-12-20T13:54:23;21.87;;;3.87;;
10872;SDS011;34586;53.616;10.032;2023-12-20T13:56:49;18.37;;;3.33;;
10872;SDS011;34586;53.616;10.032;2023-12-20T13:59:15;17.63;;;3.90;;
10872;SDS011;34586;53.616;10.032;2023-12-20T14:01:41;20.03;;;3.90;;
10872;SDS011;34586;53.616;10.032;2023-12-20T14:04:06;18.87;;;3.50;;
10872;SDS011;34586;53.616;10.032;2023-12-20T14:06:32;30.23;;;4.47;;
10872;SDS011;34586;53.616;10.032;2023-12-20T14:08:58;20.67;;;4.40;;
10872;SDS011;34586;53.616;10.032;2023-12-20T14:11:28;21.20;;;4.73;;
10872;SDS011;34586;53.616;10.032;2023-12-20T14:13:53;16.73;;;4.70;;
10872;SDS011;34586;53.616;10.032;2023-12-20T14:16:23;21.67;;;4.43;;
10872;SDS011;34586;53.616;10.032;2023-12-20T14:18:49;15.37;;;3.93;;
10872;SDS011;34586;53.616;10.032;2023-12-20T14:21:16;21.00;;;4.43;;
10872;SDS011;34586;53.616;10.032;2023-12-20T14:23:42;23.17;;;4.90;;
10872;SDS011;34586;53.616;10.032;2023-12-20T14:26:08;18.77;;;4.10;;
10872;SDS011;34586;53.616;10.032;2023-12-20T14:28:40;20.90;;;4.33;;